createdAt,value
2022-08-28T00:00:36.244Z,1.17
2022-08-28T00:03:05.745Z,1.57
2022-08-28T00:05:34.177Z,0.77
2022-08-28T00:08:01.789Z,2.07
2022-08-28T00:10:30.474Z,1.53
2022-08-28T00:12:58.330Z,1.63
2022-08-28T00:15:27.685Z,1.83
2022-08-28T00:17:55.933Z,1.87
2022-08-28T00:20:25.255Z,1.00
2022-08-28T00:22:55.804Z,1.37
2022-08-28T00:25:24.566Z,1.30
2022-08-28T00:27:55.024Z,1.00
2022-08-28T00:30:24.881Z,1.10
2022-08-28T00:32:53.009Z,1.70
2022-08-28T00:35:21.869Z,1.77
2022-08-28T00:37:51.579Z,2.27
2022-08-28T00:40:28.510Z,1.47
2022-08-28T00:42:58.290Z,1.00
2022-08-28T00:45:26.587Z,0.80
2022-08-28T00:47:54.295Z,1.33
2022-08-28T00:50:23.379Z,0.77
2022-08-28T00:52:54.912Z,1.27
2022-08-28T00:55:24.563Z,1.47
2022-08-28T00:57:54.192Z,0.90
2022-08-28T01:00:25.348Z,1.30
2022-08-28T01:02:53.126Z,2.73
2022-08-28T01:05:21.078Z,1.20
2022-08-28T01:07:48.807Z,1.37
2022-08-28T01:10:19.119Z,0.90
2022-08-28T01:12:47.710Z,1.23
2022-08-28T01:15:17.451Z,1.77
2022-08-28T01:17:47.357Z,0.90
2022-08-28T01:20:17.339Z,0.87
2022-08-28T01:22:49.257Z,1.50
2022-08-28T01:25:19.731Z,1.87
2022-08-28T01:27:47.854Z,0.70
2022-08-28T01:30:16.291Z,0.90
2022-08-28T01:32:45.845Z,1.30
2022-08-28T01:35:14.658Z,0.87
2022-08-28T01:37:42.461Z,10.77
2022-08-28T01:40:11.057Z,12.03
2022-08-28T01:42:40.343Z,12.30
2022-08-28T01:45:11.364Z,12.97
2022-08-28T01:47:38.971Z,13.87
2022-08-28T01:50:07.996Z,15.10
2022-08-28T01:52:36.514Z,15.20
2022-08-28T01:55:05.270Z,15.67
2022-08-28T01:57:33.610Z,16.93
2022-08-28T02:00:02.813Z,18.07
2022-08-28T02:02:39.867Z,16.97
2022-08-28T02:05:08.467Z,17.37
2022-08-28T02:07:36.175Z,18.27
2022-08-28T02:10:03.960Z,18.30
2022-08-28T02:12:32.130Z,18.00
2022-08-28T02:14:59.836Z,18.70
2022-08-28T02:17:28.728Z,18.80
2022-08-28T02:19:56.759Z,19.60
2022-08-28T02:22:24.781Z,19.00
2022-08-28T02:24:53.012Z,19.40
2022-08-28T02:27:20.970Z,19.77
2022-08-28T02:29:48.542Z,20.27
2022-08-28T02:32:16.341Z,20.40
2022-08-28T02:34:45.809Z,20.10
2022-08-28T02:37:13.703Z,20.40
2022-08-28T02:39:41.643Z,20.70
2022-08-28T02:42:09.365Z,21.93
2022-08-28T02:44:36.932Z,21.67
2022-08-28T02:47:05.432Z,20.47
2022-08-28T02:49:36.053Z,20.93
2022-08-28T02:52:06.937Z,20.20
2022-08-28T02:54:35.629Z,21.43
2022-08-28T02:57:03.413Z,20.73
2022-08-28T02:59:32.075Z,19.87
2022-08-28T03:01:59.675Z,19.07
2022-08-28T03:04:27.297Z,20.60
2022-08-28T03:06:54.853Z,18.27
2022-08-28T03:09:24.118Z,17.50
2022-08-28T03:11:53.931Z,16.50
2022-08-28T03:14:21.919Z,16.73
2022-08-28T03:16:50.049Z,14.83
2022-08-28T03:19:17.785Z,14.93
2022-08-28T03:21:45.364Z,15.47
2022-08-28T03:24:15.691Z,14.53
2022-08-28T03:26:45.008Z,14.03
2022-08-28T03:29:12.937Z,14.30
2022-08-28T03:31:41.587Z,13.80
2022-08-28T03:34:09.487Z,13.50
2022-08-28T03:36:37.405Z,13.17
2022-08-28T03:39:06.868Z,12.30
2022-08-28T03:41:34.622Z,12.57
2022-08-28T03:44:04.834Z,12.10
2022-08-28T03:46:33.926Z,12.50
2022-08-28T03:49:02.423Z,12.40
2022-08-28T03:51:32.702Z,12.27
2022-08-28T03:54:01.181Z,11.43
2022-08-28T03:56:30.539Z,10.77
2022-08-28T03:59:00.174Z,12.03
2022-08-28T04:01:29.883Z,11.53
2022-08-28T04:03:57.680Z,10.50
2022-08-28T04:06:25.499Z,10.60
2022-08-28T04:08:53.323Z,10.43
2022-08-28T04:11:20.890Z,9.83
2022-08-28T04:13:48.476Z,10.40
2022-08-28T04:16:19.291Z,9.40
2022-08-28T04:18:49.227Z,9.83
2022-08-28T04:21:18.393Z,9.50
2022-08-28T04:23:46.765Z,9.00
2022-08-28T04:26:17.030Z,8.63
2022-08-28T04:28:44.938Z,8.90
2022-08-28T04:31:13.013Z,7.47
2022-08-28T04:33:41.171Z,8.93
2022-08-28T04:36:12.432Z,8.40
2022-08-28T04:38:43.721Z,8.17
2022-08-28T04:41:14.186Z,8.67
2022-08-28T04:43:41.945Z,7.97
2022-08-28T04:46:11.264Z,8.30
2022-08-28T04:48:39.951Z,8.17
2022-08-28T04:51:08.529Z,7.20
2022-08-28T04:53:38.233Z,7.80
2022-08-28T04:56:07.281Z,7.20
2022-08-28T04:58:35.305Z,6.50
2022-08-28T05:01:06.950Z,7.10
2022-08-28T05:03:34.867Z,7.50
2022-08-28T05:06:04.638Z,7.07
2022-08-28T05:08:32.811Z,6.67
2022-08-28T05:11:11.768Z,7.00
2022-08-28T05:13:39.616Z,7.17
2022-08-28T05:16:07.355Z,7.20
2022-08-28T05:18:35.801Z,6.70
2022-08-28T05:21:03.590Z,6.70
2022-08-28T05:23:31.541Z,6.03
2022-08-28T05:25:59.522Z,5.90
2022-08-28T05:28:28.391Z,6.60
2022-08-28T05:30:55.918Z,6.03
2022-08-28T05:33:23.668Z,5.90
2022-08-28T05:35:51.288Z,6.23
2022-08-28T05:38:18.979Z,6.27
2022-08-28T05:40:48.018Z,6.33
2022-08-28T05:43:16.731Z,6.27
2022-08-28T05:45:45.780Z,5.83
2022-08-28T05:48:15.670Z,6.83
2022-08-28T05:50:47.438Z,5.80
2022-08-28T05:53:16.992Z,6.20
2022-08-28T05:55:44.806Z,6.83
2022-08-28T05:58:32.613Z,5.63
2022-08-28T06:01:12.367Z,6.03
2022-08-28T06:03:41.811Z,6.40
2022-08-28T06:06:10.399Z,6.40
2022-08-28T06:08:39.129Z,6.50
2022-08-28T06:11:26.812Z,6.60
2022-08-28T06:13:54.517Z,6.23
2022-08-28T06:16:23.611Z,6.90
2022-08-28T06:18:52.047Z,7.57
2022-08-28T06:21:20.661Z,7.17
2022-08-28T06:23:48.426Z,7.13
2022-08-28T06:26:16.206Z,7.30
2022-08-28T06:28:43.834Z,7.67
2022-08-28T06:31:24.464Z,7.23
2022-08-28T06:33:56.347Z,6.23
2022-08-28T06:36:24.213Z,5.60
2022-08-28T06:38:52.101Z,6.37
2022-08-28T06:41:20.306Z,5.53
2022-08-28T06:43:48.395Z,5.67
2022-08-28T06:46:16.440Z,6.00
2022-08-28T06:48:44.307Z,5.27
2022-08-28T06:51:13.799Z,6.00
2022-08-28T06:53:42.604Z,6.17
2022-08-28T06:56:12.005Z,6.30
2022-08-28T06:58:50.105Z,6.33
2022-08-28T07:01:23.792Z,6.80
2022-08-28T07:03:51.927Z,6.47
2022-08-28T07:06:22.710Z,5.97
2022-08-28T07:08:51.056Z,5.60
2022-08-28T07:11:20.300Z,6.50
2022-08-28T07:13:48.966Z,5.57
2022-08-28T07:16:18.095Z,5.23
2022-08-28T07:18:46.349Z,5.43
2022-08-28T07:21:14.262Z,5.67
2022-08-28T07:23:44.751Z,5.30
2022-08-28T07:26:13.929Z,5.70
2022-08-28T07:28:42.172Z,5.63
2022-08-28T07:31:12.007Z,5.60
2022-08-28T07:33:40.535Z,5.00
2022-08-28T07:36:08.871Z,5.63
2022-08-28T07:38:45.518Z,5.40
2022-08-28T07:41:13.930Z,5.10
2022-08-28T07:43:59.774Z,5.73
2022-08-28T07:46:29.182Z,5.70
2022-08-28T07:48:58.687Z,5.07
2022-08-28T07:51:26.868Z,5.63
2022-08-28T07:53:57.526Z,5.80
2022-08-28T07:56:26.326Z,5.87
2022-08-28T07:58:54.108Z,5.67
2022-08-28T08:01:22.586Z,6.60
2022-08-28T08:03:50.411Z,5.60
2022-08-28T08:06:28.115Z,4.77
2022-08-28T08:09:03.424Z,4.83
2022-08-28T08:11:32.620Z,6.00
2022-08-28T08:14:05.662Z,6.63
2022-08-28T08:16:34.595Z,6.07
2022-08-28T08:19:03.333Z,6.23
2022-08-28T08:21:31.377Z,5.90
2022-08-28T08:24:00.526Z,5.63
2022-08-28T08:26:30.885Z,5.80
2022-08-28T08:28:58.866Z,5.73
2022-08-28T08:31:28.234Z,5.13
2022-08-28T08:33:56.750Z,5.20
2022-08-28T08:36:25.913Z,5.50
2022-08-28T08:38:59.877Z,5.70
2022-08-28T08:41:31.362Z,4.90
2022-08-28T08:44:02.257Z,5.70
2022-08-28T08:46:33.406Z,5.77
2022-08-28T08:49:03.538Z,5.50
2022-08-28T08:51:38.716Z,6.57
2022-08-28T08:54:08.427Z,6.57
2022-08-28T08:56:37.525Z,6.27
2022-08-28T08:59:08.133Z,6.67
2022-08-28T09:01:40.041Z,6.47
2022-08-28T09:04:15.850Z,6.00
2022-08-28T09:06:49.907Z,6.30
2022-08-28T09:09:19.193Z,6.37
2022-08-28T09:11:52.204Z,6.07
2022-08-28T09:14:31.486Z,6.47
2022-08-28T09:16:59.487Z,6.33
2022-08-28T09:19:27.091Z,6.53
2022-08-28T09:21:55.168Z,6.93
2022-08-28T09:24:24.167Z,6.07
2022-08-28T09:26:57.272Z,6.40
2022-08-28T09:29:29.112Z,6.03
2022-08-28T09:31:57.355Z,7.50
2022-08-28T09:34:27.794Z,6.57
2022-08-28T09:36:56.543Z,6.20
2022-08-28T09:39:25.681Z,7.23
2022-08-28T09:42:13.698Z,6.93
2022-08-28T09:44:53.914Z,6.80
2022-08-28T09:47:46.045Z,6.87
2022-08-28T09:50:20.384Z,5.97
2022-08-28T09:52:48.315Z,6.57
2022-08-28T09:55:18.947Z,6.73
2022-08-28T09:57:47.687Z,6.80
2022-08-28T10:00:17.116Z,6.27
2022-08-28T10:02:46.956Z,6.37
2022-08-28T10:05:16.789Z,7.33
2022-08-28T10:07:48.954Z,7.77
2022-08-28T10:10:22.882Z,6.50
2022-08-28T10:12:55.559Z,6.90
2022-08-28T10:15:27.082Z,7.10
2022-08-28T10:18:08.798Z,6.70
2022-08-28T10:20:41.439Z,7.03
2022-08-28T10:23:17.429Z,6.70
2022-08-28T10:25:49.543Z,7.40
2022-08-28T10:28:23.738Z,6.90
2022-08-28T10:30:57.737Z,7.80
2022-08-28T10:33:31.767Z,7.20
2022-08-28T10:36:03.043Z,7.53
2022-08-28T10:38:37.821Z,8.67
2022-08-28T10:41:07.110Z,10.50
2022-08-28T10:43:36.175Z,8.63
2022-08-28T10:46:07.175Z,7.73
2022-08-28T10:48:36.509Z,26.20
2022-08-28T10:51:06.082Z,10.30
2022-08-28T10:53:37.506Z,36.33
2022-08-28T10:56:07.688Z,15.83
2022-08-28T10:58:38.282Z,16.97
2022-08-28T11:01:08.807Z,8.23
2022-08-28T11:03:41.637Z,17.60
2022-08-28T11:06:14.027Z,15.07
2022-08-28T11:08:42.018Z,17.40
2022-08-28T11:11:13.958Z,9.83
2022-08-28T11:13:47.075Z,8.27
2022-08-28T11:16:20.712Z,9.73
2022-08-28T11:19:14.472Z,9.60
2022-08-28T11:21:45.516Z,9.90
2022-08-28T11:24:25.655Z,8.87
2022-08-28T11:27:00.021Z,8.40
2022-08-28T11:29:47.923Z,8.80
2022-08-28T11:32:36.803Z,8.87
2022-08-28T11:37:58.062Z,8.07
2022-08-28T11:40:40.924Z,7.70
2022-08-28T11:43:23.587Z,9.20
2022-08-28T11:46:10.499Z,8.80
2022-08-28T11:48:50.871Z,8.80
2022-08-28T11:51:37.568Z,9.67
2022-08-28T11:54:10.059Z,9.10
2022-08-28T11:56:43.057Z,9.67
2022-08-28T11:59:35.108Z,8.80
2022-08-28T12:02:22.506Z,9.93
2022-08-28T12:04:51.660Z,13.13
2022-08-28T12:07:21.921Z,17.17
2022-08-28T12:09:50.759Z,14.90
2022-08-28T12:12:37.599Z,22.83
2022-08-28T12:15:09.791Z,13.03
2022-08-28T12:18:01.416Z,10.17
2022-08-28T12:20:38.885Z,14.90
2022-08-28T12:23:21.538Z,15.80
2022-08-28T12:25:49.594Z,12.60
2022-08-28T12:28:19.656Z,12.10
2022-08-28T12:30:53.187Z,10.50
2022-08-28T12:33:24.255Z,10.37
2022-08-28T12:35:53.396Z,10.00
2022-08-28T12:38:22.132Z,11.37
2022-08-28T12:40:52.996Z,9.20
2022-08-28T12:43:31.669Z,9.40
2022-08-28T12:46:01.495Z,8.23
2022-08-28T12:48:31.608Z,8.50
2022-08-28T12:51:03.121Z,8.60
2022-08-28T12:53:38.723Z,8.53
2022-08-28T12:56:07.003Z,8.17
2022-08-28T12:58:35.403Z,7.90
2022-08-28T13:01:05.143Z,8.07
2022-08-28T13:03:33.258Z,8.40
2022-08-28T13:06:05.043Z,8.57
2022-08-28T13:08:33.942Z,8.57
2022-08-28T13:11:02.071Z,9.00
2022-08-28T13:13:33.670Z,8.63
2022-08-28T13:16:01.984Z,8.10
2022-08-28T13:18:51.448Z,8.63
2022-08-28T13:21:37.310Z,25.00
2022-08-28T13:24:24.170Z,74.83
2022-08-28T13:27:00.611Z,50.67
2022-08-28T13:29:28.780Z,48.37
2022-08-28T13:31:59.395Z,17.70
2022-08-28T13:34:28.135Z,22.60
2022-08-28T13:36:59.623Z,14.90
2022-08-28T13:39:27.977Z,39.73
2022-08-28T13:41:56.629Z,12.83
2022-08-28T13:44:29.438Z,10.40
2022-08-28T13:46:57.735Z,10.03
2022-08-28T13:49:27.628Z,15.37
2022-08-28T13:51:57.865Z,13.43
2022-08-28T13:54:25.551Z,14.00
2022-08-28T13:56:55.433Z,8.60
2022-08-28T13:59:23.463Z,6.57
2022-08-28T14:02:09.733Z,6.37
2022-08-28T14:04:37.646Z,6.07
2022-08-28T14:07:07.448Z,6.93
2022-08-28T14:09:35.114Z,6.60
2022-08-28T14:12:04.443Z,6.10
2022-08-28T14:14:32.733Z,6.60
2022-08-28T14:17:00.998Z,5.80
2022-08-28T14:19:29.517Z,6.50
2022-08-28T14:21:57.708Z,12.90
2022-08-28T14:24:27.452Z,5.47
2022-08-28T14:26:55.404Z,6.17
2022-08-28T14:29:23.316Z,5.63
2022-08-28T14:31:51.030Z,6.83
2022-08-28T14:34:19.532Z,5.03
2022-08-28T14:36:50.799Z,5.30
2022-08-28T14:39:18.507Z,5.20
2022-08-28T14:41:49.275Z,5.70
2022-08-28T14:44:17.453Z,6.13
2022-08-28T14:46:46.470Z,6.10
2022-08-28T14:49:15.504Z,5.33
2022-08-28T14:51:44.031Z,5.20
2022-08-28T14:54:12.763Z,5.60
2022-08-28T14:56:41.287Z,5.03
2022-08-28T14:59:16.699Z,5.30
2022-08-28T15:01:46.383Z,5.40
2022-08-28T15:04:15.802Z,4.90
2022-08-28T15:06:43.953Z,5.33
2022-08-28T15:09:11.821Z,8.50
2022-08-28T15:11:40.509Z,5.23
2022-08-28T15:14:08.847Z,4.80
2022-08-28T15:16:40.102Z,5.03
2022-08-28T15:19:11.838Z,4.97
2022-08-28T15:21:42.156Z,5.20
2022-08-28T15:24:10.626Z,4.73
2022-08-28T15:26:40.241Z,4.80
2022-08-28T15:29:08.393Z,6.07
2022-08-28T15:31:37.019Z,16.60
2022-08-28T15:34:13.470Z,6.90
2022-08-28T15:36:42.277Z,6.70
2022-08-28T15:39:27.811Z,6.03
2022-08-28T15:41:55.679Z,5.73
2022-08-28T15:44:23.297Z,6.33
2022-08-28T15:46:52.704Z,7.23
2022-08-28T15:49:23.763Z,7.80
2022-08-28T15:51:52.140Z,8.30
2022-08-28T15:54:19.808Z,7.03
2022-08-28T15:56:48.012Z,7.30
2022-08-28T15:59:19.549Z,8.10
2022-08-28T16:01:47.514Z,10.33
2022-08-28T16:04:15.871Z,20.63
2022-08-28T16:06:45.410Z,11.57
2022-08-28T16:09:13.323Z,33.93
2022-08-28T16:11:42.382Z,9.60
2022-08-28T16:14:11.222Z,58.83
2022-08-28T16:16:38.878Z,13.70
2022-08-28T16:19:07.824Z,11.27
2022-08-28T16:21:35.882Z,7.63
2022-08-28T16:24:05.400Z,9.33
2022-08-28T16:26:33.294Z,7.20
2022-08-28T16:29:01.020Z,8.13
2022-08-28T16:31:29.969Z,7.23
2022-08-28T16:33:57.836Z,6.20
2022-08-28T16:36:26.340Z,7.10
2022-08-28T16:39:03.769Z,5.60
2022-08-28T16:41:33.218Z,5.87
2022-08-28T16:44:01.191Z,6.30
2022-08-28T16:46:28.990Z,6.40
2022-08-28T16:48:57.032Z,5.20
2022-08-28T16:51:27.188Z,6.90
2022-08-28T16:53:54.854Z,5.83
2022-08-28T16:56:23.739Z,6.70
2022-08-28T16:58:53.354Z,5.70
2022-08-28T17:01:24.099Z,4.93
2022-08-28T17:03:53.081Z,7.40
2022-08-28T17:06:23.295Z,6.33
2022-08-28T17:08:54.606Z,6.17
2022-08-28T17:11:24.614Z,5.67
2022-08-28T17:13:53.597Z,5.70
2022-08-28T17:16:22.772Z,5.90
2022-08-28T17:18:52.647Z,7.70
2022-08-28T17:21:38.295Z,6.87
2022-08-28T17:24:06.905Z,6.73
2022-08-28T17:26:34.513Z,9.33
2022-08-28T17:29:03.921Z,14.47
2022-08-28T17:31:31.792Z,11.00
2022-08-28T17:33:59.679Z,20.40
2022-08-28T17:36:33.338Z,18.63
2022-08-28T17:39:02.569Z,25.13
2022-08-28T17:41:30.118Z,14.60
2022-08-28T17:43:58.242Z,7.30
2022-08-28T17:46:28.666Z,12.73
2022-08-28T17:48:56.460Z,25.70
2022-08-28T17:51:41.859Z,7.43
2022-08-28T17:54:11.102Z,6.90
2022-08-28T17:56:38.655Z,5.97
2022-08-28T17:59:06.528Z,6.87
2022-08-28T18:01:36.388Z,5.83
2022-08-28T18:04:05.078Z,5.40
2022-08-28T18:06:33.179Z,6.23
2022-08-28T18:09:01.234Z,5.57
2022-08-28T18:11:29.278Z,5.00
2022-08-28T18:13:57.137Z,4.87
2022-08-28T18:16:30.390Z,5.97
2022-08-28T18:19:00.438Z,4.53
2022-08-28T18:21:29.081Z,5.67
2022-08-28T18:23:56.967Z,6.37
2022-08-28T18:26:24.665Z,6.30
2022-08-28T18:29:12.152Z,6.10
2022-08-28T18:31:39.915Z,5.67
2022-08-28T18:34:09.748Z,5.47
2022-08-28T18:36:39.837Z,5.80
2022-08-28T18:39:07.590Z,6.13
2022-08-28T18:41:43.547Z,8.93
2022-08-28T18:44:13.347Z,17.83
2022-08-28T18:46:41.131Z,8.47
2022-08-28T18:49:10.580Z,18.50
2022-08-28T18:51:38.807Z,18.03
2022-08-28T18:54:06.619Z,12.50
2022-08-28T18:56:35.563Z,8.70
2022-08-28T18:59:04.426Z,14.27
2022-08-28T19:01:32.253Z,8.97
2022-08-28T19:04:00.020Z,5.77
2022-08-28T19:06:28.955Z,12.73
2022-08-28T19:08:57.623Z,6.23
2022-08-28T19:11:25.483Z,5.03
2022-08-28T19:13:53.220Z,4.90
2022-08-28T19:16:21.675Z,8.30
2022-08-28T19:18:52.906Z,4.60
2022-08-28T19:21:21.184Z,5.50
2022-08-28T19:23:56.042Z,5.07
2022-08-28T19:26:24.840Z,4.77
2022-08-28T19:28:52.946Z,5.00
2022-08-28T19:31:20.657Z,4.70
2022-08-28T19:33:48.445Z,4.00
2022-08-28T19:36:16.391Z,4.70
2022-08-28T19:38:44.261Z,4.33
2022-08-28T19:41:13.864Z,6.27
2022-08-28T19:43:43.282Z,4.57
2022-08-28T19:46:19.385Z,4.50
2022-08-28T19:48:48.803Z,4.90
2022-08-28T19:51:22.184Z,6.50
2022-08-28T19:53:56.736Z,4.23
2022-08-28T19:56:28.076Z,4.70
2022-08-28T19:58:57.345Z,4.40
2022-08-28T20:01:25.912Z,5.43
2022-08-28T20:03:53.747Z,4.40
2022-08-28T20:06:21.406Z,4.63
2022-08-28T20:08:49.251Z,5.80
2022-08-28T20:11:17.738Z,5.27
2022-08-28T20:13:46.809Z,4.80
2022-08-28T20:16:14.453Z,5.53
2022-08-28T20:18:42.552Z,7.30
2022-08-28T20:21:12.027Z,5.67
2022-08-28T20:23:40.294Z,10.67
2022-08-28T20:26:09.590Z,10.27
2022-08-28T20:28:37.339Z,11.43
2022-08-28T20:31:09.886Z,7.40
2022-08-28T20:33:37.929Z,20.13
2022-08-28T20:36:06.298Z,19.63
2022-08-28T20:38:39.379Z,14.57
2022-08-28T20:41:07.995Z,8.17
2022-08-28T20:43:36.217Z,9.50
2022-08-28T20:46:04.153Z,7.30
2022-08-28T20:48:34.227Z,7.13
2022-08-28T20:51:02.771Z,5.83
2022-08-28T20:53:37.821Z,5.60
2022-08-28T20:56:06.812Z,5.60
2022-08-28T20:58:34.628Z,5.47
2022-08-28T21:01:02.759Z,6.00
2022-08-28T21:03:30.350Z,4.40
2022-08-28T21:05:59.699Z,5.10
2022-08-28T21:08:27.365Z,4.80
2022-08-28T21:10:55.017Z,5.40
2022-08-28T21:13:23.312Z,4.23
2022-08-28T21:15:50.928Z,4.40
2022-08-28T21:18:18.569Z,5.10
2022-08-28T21:20:46.845Z,4.90
2022-08-28T21:23:16.170Z,4.30
2022-08-28T21:25:44.078Z,4.80
2022-08-28T21:28:11.967Z,4.40
2022-08-28T21:30:41.466Z,4.70
2022-08-28T21:33:09.344Z,5.60
2022-08-28T21:35:37.457Z,4.20
2022-08-28T21:38:05.174Z,4.00
2022-08-28T21:40:35.204Z,4.27
2022-08-28T21:43:03.477Z,4.80
2022-08-28T21:45:31.062Z,4.23
2022-08-28T21:47:58.843Z,5.87
2022-08-28T21:50:29.297Z,4.80
2022-08-28T21:52:56.915Z,5.00
2022-08-28T21:55:24.594Z,25.10
2022-08-28T21:57:53.758Z,23.13
2022-08-28T22:00:22.695Z,11.90
2022-08-28T22:02:50.708Z,15.13
2022-08-28T22:05:18.764Z,8.40
2022-08-28T22:07:46.433Z,9.33
2022-08-28T22:10:14.931Z,17.77
2022-08-28T22:12:43.256Z,8.77
2022-08-28T22:15:12.733Z,15.73
2022-08-28T22:17:40.581Z,8.43
2022-08-28T22:20:08.927Z,7.97
2022-08-28T22:22:54.234Z,7.70
2022-08-28T22:25:22.459Z,7.73
2022-08-28T22:27:50.499Z,9.40
2022-08-28T22:30:19.860Z,5.47
2022-08-28T22:32:48.242Z,7.40
2022-08-28T22:35:15.909Z,6.20
2022-08-28T22:37:43.526Z,5.43
2022-08-28T22:40:13.311Z,5.23
2022-08-28T22:42:42.479Z,5.17
2022-08-28T22:45:10.645Z,5.03
2022-08-28T22:47:40.198Z,5.33
2022-08-28T22:50:08.445Z,5.33
2022-08-28T22:52:37.117Z,5.10
2022-08-28T22:55:06.699Z,4.50
2022-08-28T22:57:34.682Z,5.03
2022-08-28T23:00:04.126Z,4.53
2022-08-28T23:02:32.488Z,5.00
2022-08-28T23:05:01.420Z,5.30
2022-08-28T23:07:29.047Z,5.10
2022-08-28T23:09:57.100Z,4.70
2022-08-28T23:12:25.422Z,4.93
2022-08-28T23:14:53.282Z,4.20
2022-08-28T23:17:21.296Z,4.50
2022-08-28T23:19:49.359Z,4.53
2022-08-28T23:22:19.358Z,5.40
2022-08-28T23:24:48.618Z,4.90
2022-08-28T23:27:35.184Z,4.90
2022-08-28T23:30:04.057Z,4.07
2022-08-28T23:32:31.735Z,4.50
2022-08-28T23:35:02.726Z,4.90
2022-08-28T23:37:39.330Z,4.33
2022-08-28T23:40:08.109Z,4.20
2022-08-28T23:42:35.787Z,4.73
2022-08-28T23:45:05.208Z,4.80
2022-08-28T23:47:33.143Z,4.20
2022-08-28T23:50:00.786Z,4.33
2022-08-28T23:52:28.804Z,4.40
2022-08-28T23:54:57.897Z,4.33
2022-08-28T23:57:26.223Z,4.20
2022-08-28T23:59:54.583Z,5.13
